createdAt,value
2022-07-29T00:01:19.476Z,1.98
2022-07-29T00:04:22.010Z,1.85
2022-07-29T00:07:24.209Z,1.40
2022-07-29T00:10:26.076Z,1.63
2022-07-29T00:13:32.296Z,1.80
2022-07-29T00:16:34.990Z,1.38
2022-07-29T00:19:36.811Z,1.40
2022-07-29T00:22:40.286Z,2.08
2022-07-29T00:25:42.072Z,1.67
2022-07-29T00:28:43.931Z,1.60
2022-07-29T00:31:46.686Z,2.35
2022-07-29T00:35:26.954Z,1.65
2022-07-29T00:38:28.681Z,1.40
2022-07-29T00:41:30.468Z,1.83
2022-07-29T00:44:42.572Z,1.63
2022-07-29T00:47:44.820Z,1.80
2022-07-29T00:50:46.771Z,1.98
2022-07-29T00:53:51.904Z,1.85
2022-07-29T00:56:54.384Z,1.80
2022-07-29T00:59:56.864Z,1.70
2022-07-29T01:02:59.006Z,1.90
2022-07-29T01:06:01.433Z,1.67
2022-07-29T01:09:04.285Z,1.70
2022-07-29T01:12:06.854Z,1.85
2022-07-29T01:15:10.756Z,1.60
2022-07-29T01:18:25.137Z,1.75
2022-07-29T01:21:56.042Z,2.20
2022-07-29T01:25:23.488Z,1.95
2022-07-29T01:28:53.212Z,1.33
2022-07-29T01:32:06.867Z,1.90
2022-07-29T01:35:29.625Z,1.70
2022-07-29T01:38:31.879Z,1.77
2022-07-29T01:41:37.443Z,1.90
2022-07-29T01:44:56.340Z,1.88
2022-07-29T01:48:04.245Z,1.80
2022-07-29T01:51:13.869Z,1.80
2022-07-29T01:54:43.879Z,1.70
2022-07-29T01:57:49.591Z,1.73
2022-07-29T02:00:52.813Z,1.85
2022-07-29T02:03:56.064Z,1.80
2022-07-29T02:07:04.894Z,1.42
2022-07-29T02:10:09.811Z,1.85
2022-07-29T02:13:13.716Z,1.98
2022-07-29T02:16:17.711Z,1.52
2022-07-29T02:19:23.252Z,1.67
2022-07-29T02:22:27.597Z,1.88
2022-07-29T02:25:37.554Z,1.70
2022-07-29T02:28:41.086Z,1.77
2022-07-29T02:31:45.909Z,2.13
2022-07-29T02:34:49.091Z,1.80
2022-07-29T02:38:10.619Z,2.08
2022-07-29T02:41:16.497Z,2.30
2022-07-29T02:44:21.175Z,1.95
2022-07-29T02:47:41.981Z,2.28
2022-07-29T02:50:51.111Z,2.13
2022-07-29T02:53:55.470Z,1.95
2022-07-29T02:57:01.692Z,1.95
2022-07-29T03:00:09.059Z,2.10
2022-07-29T03:03:16.066Z,2.03
2022-07-29T03:06:28.569Z,2.13
2022-07-29T03:09:42.751Z,2.28
2022-07-29T03:12:45.207Z,2.53
2022-07-29T03:15:48.093Z,3.05
2022-07-29T03:18:50.789Z,2.97
2022-07-29T03:21:52.902Z,2.97
2022-07-29T03:24:54.722Z,2.92
2022-07-29T03:27:57.406Z,2.75
2022-07-29T03:30:59.450Z,2.85
2022-07-29T03:34:01.766Z,2.90
2022-07-29T03:37:03.598Z,3.00
2022-07-29T03:40:11.207Z,2.75
2022-07-29T03:43:15.738Z,2.67
2022-07-29T03:46:19.042Z,2.90
2022-07-29T03:52:23.385Z,2.97
2022-07-29T03:55:26.027Z,2.70
2022-07-29T03:58:28.957Z,3.10
2022-07-29T04:01:33.370Z,2.60
2022-07-29T04:04:36.413Z,3.78
2022-07-29T04:07:38.261Z,3.63
2022-07-29T04:10:40.004Z,3.70
2022-07-29T04:13:42.085Z,3.80
2022-07-29T04:16:43.802Z,3.65
2022-07-29T04:19:46.094Z,3.00
2022-07-29T04:22:48.053Z,2.80
2022-07-29T04:25:49.904Z,2.60
2022-07-29T04:28:51.670Z,3.20
2022-07-29T04:31:53.732Z,3.10
2022-07-29T04:34:55.515Z,2.75
2022-07-29T04:37:57.721Z,2.92
2022-07-29T04:40:59.487Z,3.45
2022-07-29T04:44:06.997Z,3.13
2022-07-29T04:47:09.798Z,3.05
2022-07-29T04:50:11.997Z,3.20
2022-07-29T04:53:13.717Z,2.83
2022-07-29T04:56:15.446Z,3.25
2022-07-29T04:59:17.443Z,3.60
2022-07-29T05:02:19.571Z,4.25
2022-07-29T05:05:21.285Z,4.10
2022-07-29T05:08:23.007Z,3.20
2022-07-29T05:11:28.654Z,3.72
2022-07-29T05:14:32.365Z,3.13
2022-07-29T05:17:34.729Z,3.45
2022-07-29T05:20:36.592Z,2.90
2022-07-29T05:23:38.327Z,3.03
2022-07-29T05:26:40.692Z,3.47
2022-07-29T05:29:45.624Z,2.95
2022-07-29T05:32:48.188Z,2.40
2022-07-29T05:35:49.899Z,3.08
2022-07-29T05:38:53.166Z,3.20
2022-07-29T05:41:54.998Z,2.67
2022-07-29T05:44:57.294Z,2.50
2022-07-29T05:47:58.988Z,3.20
2022-07-29T05:51:01.565Z,2.75
2022-07-29T05:54:03.732Z,3.00
2022-07-29T05:57:06.389Z,3.38
2022-07-29T06:00:08.874Z,3.70
2022-07-29T06:03:10.801Z,4.00
2022-07-29T06:06:13.105Z,4.50
2022-07-29T06:09:14.961Z,4.35
2022-07-29T06:12:16.907Z,4.10
2022-07-29T06:15:18.853Z,4.60
2022-07-29T06:18:21.784Z,4.53
2022-07-29T06:21:23.876Z,4.38
2022-07-29T06:24:25.704Z,4.10
2022-07-29T06:27:27.408Z,4.03
2022-07-29T06:30:29.883Z,4.00
2022-07-29T06:33:31.849Z,3.97
2022-07-29T06:36:42.824Z,4.03
2022-07-29T06:39:44.640Z,4.00
2022-07-29T06:42:46.393Z,4.35
2022-07-29T06:45:48.224Z,3.88
2022-07-29T06:48:50.886Z,4.45
2022-07-29T06:51:53.370Z,3.95
2022-07-29T06:54:56.053Z,3.50
2022-07-29T06:57:57.816Z,4.88
2022-07-29T07:01:02.080Z,4.13
2022-07-29T07:04:04.023Z,4.90
2022-07-29T07:07:06.010Z,5.00
2022-07-29T07:10:08.236Z,4.40
2022-07-29T07:13:10.024Z,4.53
2022-07-29T07:16:12.109Z,4.80
2022-07-29T07:19:14.262Z,4.60
2022-07-29T07:22:16.056Z,4.15
2022-07-29T07:25:18.395Z,4.25
2022-07-29T07:28:25.053Z,4.05
2022-07-29T07:31:27.665Z,4.05
2022-07-29T07:34:31.062Z,4.28
2022-07-29T07:37:34.986Z,4.75
2022-07-29T07:40:36.794Z,5.05
2022-07-29T07:43:38.901Z,5.40
2022-07-29T07:46:40.639Z,5.25
2022-07-29T07:49:44.198Z,5.47
2022-07-29T07:52:48.709Z,5.47
2022-07-29T07:59:12.114Z,7.30
2022-07-29T08:02:14.002Z,6.63
2022-07-29T08:05:18.075Z,7.63
2022-07-29T08:08:20.202Z,6.78
2022-07-29T08:11:22.237Z,6.20
2022-07-29T08:14:24.138Z,6.28
2022-07-29T08:17:26.302Z,6.15
2022-07-29T08:20:28.333Z,6.60
2022-07-29T08:23:46.473Z,6.28
2022-07-29T08:26:50.647Z,6.60
2022-07-29T08:29:52.458Z,5.80
2022-07-29T08:32:55.628Z,5.65
2022-07-29T08:35:57.993Z,5.95
2022-07-29T08:38:59.993Z,5.85
2022-07-29T08:42:02.112Z,6.03
2022-07-29T08:45:06.008Z,5.38
2022-07-29T08:48:08.032Z,5.40
2022-07-29T08:51:21.268Z,5.40
2022-07-29T08:54:24.720Z,5.88
2022-07-29T09:00:30.638Z,5.47
2022-07-29T09:06:40.233Z,5.07
2022-07-29T09:09:42.443Z,4.93
2022-07-29T09:12:44.382Z,5.38
2022-07-29T09:15:46.393Z,5.30
2022-07-29T09:18:48.732Z,6.05
2022-07-29T09:21:59.762Z,5.25
2022-07-29T09:25:01.613Z,4.90
2022-07-29T09:28:11.579Z,4.85
2022-07-29T09:31:13.867Z,4.32
2022-07-29T09:34:22.490Z,4.45
2022-07-29T09:37:30.605Z,5.40
2022-07-29T09:40:32.393Z,4.82
2022-07-29T09:43:35.135Z,4.95
2022-07-29T09:46:37.059Z,4.47
2022-07-29T09:49:59.242Z,4.20
2022-07-29T09:53:01.328Z,4.53
2022-07-29T09:56:03.912Z,4.55
2022-07-29T09:59:09.893Z,4.50
2022-07-29T10:02:20.327Z,3.92
2022-07-29T10:05:36.176Z,4.65
2022-07-29T10:08:39.378Z,4.68
2022-07-29T10:11:48.846Z,3.88
2022-07-29T10:14:52.338Z,4.20
2022-07-29T10:17:56.378Z,3.80
2022-07-29T10:20:58.586Z,2.92
2022-07-29T10:24:01.393Z,3.15
2022-07-29T10:27:05.459Z,2.40
2022-07-29T10:30:08.991Z,2.00
2022-07-29T10:33:15.191Z,2.55
2022-07-29T10:36:53.095Z,2.30
2022-07-29T10:40:50.562Z,2.58
2022-07-29T10:43:54.568Z,2.92
2022-07-29T10:46:56.920Z,2.65
2022-07-29T10:50:01.807Z,2.40
2022-07-29T10:53:04.915Z,2.70
2022-07-29T10:56:28.546Z,1.83
2022-07-29T10:59:36.174Z,2.20
2022-07-29T11:02:43.779Z,2.05
2022-07-29T11:05:54.605Z,2.30
2022-07-29T11:09:20.247Z,2.25
2022-07-29T11:12:39.795Z,2.10
2022-07-29T11:15:58.452Z,2.05
2022-07-29T11:19:13.210Z,2.45
2022-07-29T11:22:34.150Z,2.20
2022-07-29T11:25:50.282Z,2.03
2022-07-29T11:29:23.199Z,2.17
2022-07-29T11:32:29.575Z,2.25
2022-07-29T11:35:38.414Z,2.75
2022-07-29T11:38:42.440Z,2.20
2022-07-29T11:41:44.202Z,3.57
2022-07-29T11:45:41.922Z,2.22
2022-07-29T11:48:31.898Z,2.42
2022-07-29T11:51:34.659Z,3.15
2022-07-29T11:54:57.353Z,2.80
2022-07-29T11:58:03.809Z,2.85
2022-07-29T12:01:07.221Z,3.30
2022-07-29T12:04:11.807Z,3.10
2022-07-29T12:07:15.841Z,3.05
2022-07-29T12:10:19.511Z,3.38
2022-07-29T12:13:22.774Z,3.63
2022-07-29T12:16:39.351Z,2.70
2022-07-29T12:19:46.275Z,2.60
2022-07-29T12:22:50.226Z,2.30
2022-07-29T12:25:51.971Z,1.95
2022-07-29T12:28:56.137Z,2.42
2022-07-29T12:32:00.266Z,2.45
2022-07-29T12:35:11.313Z,2.88
2022-07-29T12:38:14.378Z,2.40
2022-07-29T12:41:16.361Z,2.00
2022-07-29T12:44:18.239Z,2.33
2022-07-29T12:47:21.099Z,2.58
2022-07-29T12:50:26.269Z,1.92
2022-07-29T12:53:29.125Z,2.20
2022-07-29T12:56:42.872Z,2.57
2022-07-29T12:59:45.324Z,3.90
2022-07-29T13:02:56.594Z,2.67
2022-07-29T13:05:58.387Z,2.35
2022-07-29T13:09:10.275Z,2.08
2022-07-29T13:12:14.406Z,2.20
2022-07-29T13:15:17.072Z,2.30
2022-07-29T13:18:33.145Z,2.38
2022-07-29T13:21:35.767Z,2.10
2022-07-29T13:25:00.505Z,2.38
2022-07-29T13:28:02.215Z,2.03
2022-07-29T13:31:05.626Z,2.10
2022-07-29T13:34:07.396Z,2.17
2022-07-29T13:37:09.187Z,2.30
2022-07-29T13:40:12.377Z,1.90
2022-07-29T13:43:14.181Z,2.25
2022-07-29T13:46:16.214Z,2.42
2022-07-29T13:49:18.335Z,2.45
2022-07-29T13:52:20.666Z,2.10
2022-07-29T13:55:23.493Z,2.10
2022-07-29T13:58:25.329Z,1.90
2022-07-29T14:01:28.145Z,2.03
2022-07-29T14:04:30.199Z,2.17
2022-07-29T14:07:32.062Z,2.30
2022-07-29T14:10:33.828Z,2.53
2022-07-29T14:13:35.978Z,1.67
2022-07-29T14:16:42.370Z,2.65
2022-07-29T14:19:45.776Z,2.47
2022-07-29T14:22:48.081Z,2.20
2022-07-29T14:25:49.830Z,2.30
2022-07-29T14:28:52.842Z,2.17
2022-07-29T14:31:54.662Z,1.83
2022-07-29T14:34:56.422Z,2.20
2022-07-29T14:37:58.502Z,2.10
2022-07-29T14:41:00.287Z,2.08
2022-07-29T14:44:02.525Z,2.42
2022-07-29T14:47:07.790Z,2.25
2022-07-29T14:50:10.459Z,2.33
2022-07-29T14:53:14.110Z,2.40
2022-07-29T14:56:36.128Z,2.33
2022-07-29T14:59:37.759Z,2.10
2022-07-29T15:03:00.554Z,2.40
2022-07-29T15:06:01.251Z,2.20
2022-07-29T15:09:03.219Z,2.00
2022-07-29T15:12:05.867Z,2.08
2022-07-29T15:15:08.458Z,2.00
2022-07-29T15:18:10.318Z,2.00
2022-07-29T15:21:12.085Z,2.00
2022-07-29T15:24:13.773Z,1.98
2022-07-29T15:27:15.875Z,2.10
2022-07-29T15:30:31.516Z,2.08
2022-07-29T15:33:36.004Z,1.90
2022-07-29T15:36:53.702Z,2.08
2022-07-29T15:39:59.897Z,2.05
2022-07-29T15:43:06.646Z,2.00
2022-07-29T15:46:27.434Z,2.15
2022-07-29T15:49:47.081Z,2.10
2022-07-29T15:52:50.734Z,1.92
2022-07-29T15:55:52.779Z,1.70
2022-07-29T15:58:54.549Z,1.60
2022-07-29T16:01:56.520Z,1.95
2022-07-29T16:04:58.455Z,1.88
2022-07-29T16:08:00.640Z,1.67
2022-07-29T16:11:03.325Z,1.85
2022-07-29T16:14:05.511Z,2.08
2022-07-29T16:17:14.724Z,1.70
2022-07-29T16:20:17.000Z,1.90
2022-07-29T16:23:18.925Z,2.08
2022-07-29T16:26:20.833Z,1.75
2022-07-29T16:29:22.759Z,2.10
2022-07-29T16:32:24.721Z,1.80
2022-07-29T16:35:39.440Z,1.88
2022-07-29T16:38:47.201Z,2.58
2022-07-29T16:41:49.525Z,1.80
2022-07-29T16:44:51.447Z,1.95
2022-07-29T16:48:00.382Z,1.77
2022-07-29T16:51:03.255Z,2.00
2022-07-29T16:54:05.354Z,2.15
2022-07-29T16:57:07.213Z,2.10
2022-07-29T17:00:09.789Z,2.20
2022-07-29T17:03:11.699Z,2.25
2022-07-29T17:06:15.682Z,2.38
2022-07-29T17:09:17.390Z,1.98
2022-07-29T17:12:19.652Z,1.83
2022-07-29T17:15:21.790Z,1.98
2022-07-29T17:18:23.826Z,2.00
2022-07-29T17:21:27.115Z,2.00
2022-07-29T17:24:29.077Z,2.28
2022-07-29T17:27:32.211Z,1.70
2022-07-29T17:30:34.723Z,2.05
2022-07-29T17:33:36.989Z,1.70
2022-07-29T17:36:38.734Z,1.83
2022-07-29T17:39:42.250Z,1.98
2022-07-29T17:42:43.991Z,1.95
2022-07-29T17:45:50.266Z,1.80
2022-07-29T17:48:56.424Z,2.38
2022-07-29T17:52:00.889Z,1.95
2022-07-29T17:55:10.565Z,1.70
2022-07-29T17:58:12.422Z,2.40
2022-07-29T18:01:17.927Z,2.63
2022-07-29T18:04:21.096Z,3.33
2022-07-29T18:07:22.901Z,2.28
2022-07-29T18:10:25.420Z,1.85
2022-07-29T18:13:27.272Z,1.80
2022-07-29T18:16:29.369Z,1.55
2022-07-29T18:19:31.240Z,1.73
2022-07-29T18:22:33.838Z,2.00
2022-07-29T18:25:35.666Z,2.10
2022-07-29T18:28:37.827Z,1.92
2022-07-29T18:31:42.423Z,1.70
2022-07-29T18:34:44.622Z,1.90
2022-07-29T18:38:02.258Z,1.52
2022-07-29T18:41:04.658Z,2.03
2022-07-29T18:44:06.784Z,1.70
2022-07-29T18:47:09.182Z,2.45
2022-07-29T18:50:13.767Z,3.50
2022-07-29T18:53:15.646Z,2.88
2022-07-29T18:56:17.902Z,2.58
2022-07-29T18:59:21.433Z,2.22
2022-07-29T19:02:23.598Z,1.90
2022-07-29T19:05:25.636Z,2.10
2022-07-29T19:08:27.321Z,2.08
2022-07-29T19:11:29.357Z,1.70
2022-07-29T19:14:31.378Z,2.25
2022-07-29T19:17:33.404Z,2.40
2022-07-29T19:20:35.244Z,2.33
2022-07-29T19:24:03.836Z,2.70
2022-07-29T19:26:59.572Z,2.78
2022-07-29T19:30:03.353Z,2.67
2022-07-29T19:33:06.117Z,3.17
2022-07-29T19:36:07.909Z,2.50
2022-07-29T19:39:10.058Z,2.08
2022-07-29T19:42:11.845Z,2.25
2022-07-29T19:45:14.055Z,2.33
2022-07-29T19:48:16.109Z,2.40
2022-07-29T19:51:17.955Z,3.65
2022-07-29T19:54:19.724Z,2.85
2022-07-29T19:57:21.896Z,3.08
2022-07-29T20:00:24.317Z,2.95
2022-07-29T20:03:26.033Z,2.60
2022-07-29T20:06:28.038Z,3.15
2022-07-29T20:09:29.896Z,4.30
2022-07-29T20:12:32.069Z,4.18
2022-07-29T20:15:34.157Z,4.35
2022-07-29T20:18:36.187Z,4.32
2022-07-29T20:21:38.103Z,4.22
2022-07-29T20:24:40.047Z,3.90
2022-07-29T20:27:43.670Z,3.83
2022-07-29T20:30:47.610Z,2.90
2022-07-29T20:33:50.862Z,3.05
2022-07-29T20:36:53.094Z,2.42
2022-07-29T20:39:54.828Z,2.80
2022-07-29T20:42:56.827Z,2.55
2022-07-29T20:45:58.596Z,2.60
2022-07-29T20:49:00.691Z,2.63
2022-07-29T20:52:03.376Z,3.65
2022-07-29T20:55:05.710Z,3.33
2022-07-29T20:58:07.472Z,2.83
2022-07-29T21:01:09.835Z,2.88
2022-07-29T21:04:11.858Z,3.45
2022-07-29T21:07:13.702Z,4.63
2022-07-29T21:10:18.107Z,4.05
2022-07-29T21:13:20.653Z,4.53
2022-07-29T21:16:25.614Z,4.63
2022-07-29T21:19:27.572Z,3.75
2022-07-29T21:22:29.420Z,4.60
2022-07-29T21:25:31.247Z,4.28
2022-07-29T21:28:40.149Z,4.47
2022-07-29T21:31:42.938Z,4.35
2022-07-29T21:34:44.703Z,4.05
2022-07-29T21:37:46.762Z,3.97
2022-07-29T21:40:51.233Z,3.83
2022-07-29T21:43:54.687Z,3.88
2022-07-29T21:47:00.426Z,4.15
2022-07-29T21:50:02.347Z,3.80
2022-07-29T21:53:04.240Z,3.28
2022-07-29T21:56:06.505Z,3.53
2022-07-29T21:59:12.854Z,3.35
2022-07-29T22:02:14.955Z,3.53
2022-07-29T22:05:16.800Z,3.25
2022-07-29T22:08:18.556Z,3.53
2022-07-29T22:11:20.974Z,3.78
2022-07-29T22:14:23.048Z,3.33
2022-07-29T22:17:24.848Z,4.28
2022-07-29T22:20:26.805Z,3.90
2022-07-29T22:23:28.758Z,3.33
2022-07-29T22:26:30.541Z,3.10
2022-07-29T22:29:32.278Z,3.50
2022-07-29T22:32:34.301Z,3.35
2022-07-29T22:35:36.186Z,3.92
2022-07-29T22:38:38.151Z,3.95
2022-07-29T22:41:39.861Z,3.88
2022-07-29T22:44:41.928Z,4.30
2022-07-29T22:47:48.133Z,4.57
2022-07-29T22:50:50.368Z,4.20
2022-07-29T22:53:52.508Z,4.45
2022-07-29T22:56:54.285Z,4.43
2022-07-29T22:59:56.016Z,4.25
2022-07-29T23:02:57.784Z,4.60
2022-07-29T23:05:59.534Z,4.55
2022-07-29T23:09:01.638Z,4.75
2022-07-29T23:12:03.564Z,4.50
2022-07-29T23:15:06.473Z,4.32
2022-07-29T23:18:08.520Z,4.47
2022-07-29T23:21:10.305Z,4.43
2022-07-29T23:24:12.085Z,4.57
2022-07-29T23:27:14.101Z,4.28
2022-07-29T23:30:16.683Z,4.63
2022-07-29T23:33:18.502Z,4.07
2022-07-29T23:36:20.974Z,4.45
2022-07-29T23:39:22.784Z,3.83
2022-07-29T23:42:24.594Z,4.65
2022-07-29T23:45:39.911Z,4.28
2022-07-29T23:48:44.936Z,4.15
2022-07-29T23:51:46.825Z,3.95
2022-07-29T23:54:48.584Z,3.83
2022-07-29T23:57:50.448Z,4.60
